Time;durP1;ratioP1;P1;durP2;ratioP2;P2;SDS_P1;SDS_P2;PMS_P1;PMS_P2;Temp;Humidity;BMP_temperature;BMP_pressure;BME280_temperature;BME280_humidity;BME280_pressure;Samples;Min_cycle;Max_cycle;Signal;HPM_P1;HPM_P2
2023/09/10 00:00:06;;;;;;;;;;;;;;;;;;;;;
2023/09/10 00:02:32;;;;;;;15.20;13.67;;;18.30;99.90;;;;;;4993574;28;20414;-73
2023/09/10 00:05:10;;;;;;;17.97;16.27;;;18.30;99.90;;;;;;4993647;28;20551;-73
2023/09/10 00:08:14;;;;;;;17.53;15.90;;;18.30;99.90;;;;;;4991750;28;20424;-73
2023/09/10 00:11:06;;;;;;;;;;;;;;;;;;;;;
2023/09/10 00:13:58;;;;;;;18.20;15.50;;;18.30;99.90;;;;;;4993168;28;20416;-73
2023/09/10 00:16:30;;;;;;;17.03;15.33;;;18.30;99.90;;;;;;4992738;28;20495;-73
2023/09/10 00:18:57;;;;;;;19.43;17.33;;;18.30;99.90;;;;;;4992954;28;20404;-73
2023/09/10 00:21:23;;;;;;;17.77;16.13;;;18.30;99.90;;;;;;4992397;28;20432;-73
2023/09/10 00:24:01;;;;;;;17.40;15.60;;;18.30;99.90;;;;;;4992540;28;20514;-73
2023/09/10 00:27:04;;;;;;;17.17;15.40;;;18.30;99.90;;;;;;4992489;28;20412;-73
2023/09/10 00:29:33;;;;;;;17.23;15.37;;;18.20;99.90;;;;;;4976061;28;20412;-73
2023/09/10 00:32:09;;;;;;;;;;;;;;;;;;;;;
2023/09/10 00:35:08;;;;;;;20.77;18.70;;;18.20;99.90;;;;;;4993128;28;20404;-73
2023/09/10 00:37:34;;;;;;;17.73;16.00;;;18.20;99.90;;;;;;4977256;28;20475;-73
2023/09/10 00:40:06;;;;;;;17.27;15.60;;;18.20;99.90;;;;;;4996986;28;20443;-73
2023/09/10 00:46:11;;;;;;;19.13;17.20;;;18.10;99.90;;;;;;4974831;28;20527;-73
2023/09/10 00:48:37;;;;;;;18.57;16.77;;;18.10;99.90;;;;;;4975690;28;20412;-73
2023/09/10 00:51:06;;;;;;;20.50;17.87;;;18.10;99.90;;;;;;4993485;28;20515;-74
2023/09/10 00:54:23;;;;;;;18.33;16.40;;;18.00;99.90;;;;;;4979925;28;20259;-74
2023/09/10 00:56:52;;;;;;;22.67;17.37;;;18.00;99.90;;;;;;4978442;28;20464;-73
2023/09/10 00:59:18;;;;;;;20.70;17.33;;;18.00;99.90;;;;;;4996035;28;21007;-73
2023/09/10 01:02:28;;;;;;;18.90;17.00;;;17.90;99.90;;;;;;4979644;28;20416;-73
2023/09/10 01:05:18;;;;;;;19.27;17.37;;;17.90;99.90;;;;;;4996563;28;20963;-73
2023/09/10 01:07:44;;;;;;;19.73;17.73;;;17.90;99.90;;;;;;4995456;28;20455;-73
2023/09/10 01:10:39;;;;;;;21.17;18.90;;;17.90;99.90;;;;;;4996823;28;20400;-73
2023/09/10 01:13:25;;;;;;;21.20;19.10;;;17.90;99.90;;;;;;4996007;28;20416;-73
2023/09/10 01:26:55;;;;;;;20.57;18.40;;;17.70;99.90;;;;;;4935640;29;20546;-73
2023/09/10 01:29:25;;;;;;;21.90;19.43;;;17.70;99.90;;;;;;4945947;28;20834;-73
2023/09/10 01:32:29;;;;;;;22.97;19.47;;;17.60;99.90;;;;;;4996576;28;20432;-73
2023/09/10 01:35:08;;;;;;;23.50;19.73;;;17.60;99.90;;;;;;4995460;28;20430;-73
2023/09/10 01:54:55;;;;;;;22.87;20.50;;;17.50;99.90;;;;;;4824006;29;21000;-73
2023/09/10 01:57:29;;;;;;;25.37;20.03;;;17.40;99.90;;;;;;4825580;29;20463;-73
2023/09/10 02:00:08;;;;;;;23.90;20.73;;;17.40;99.90;;;;;;4892465;29;20409;-74
2023/09/10 02:09:36;;;;;;;27.17;22.70;;;17.30;99.90;;;;;;4916329;29;20440;-74
2023/09/10 02:12:03;;;;;;;30.37;21.80;;;17.30;99.90;;;;;;4922531;28;20420;-73
2023/09/10 02:14:29;;;;;;;29.00;23.10;;;17.30;99.90;;;;;;4995863;28;20510;-73
2023/09/10 02:17:33;;;;;;;31.97;25.30;;;17.30;99.90;;;;;;4993639;28;20532;-73
2023/09/10 02:20:09;;;;;;;28.07;24.03;;;17.20;99.90;;;;;;4978367;28;20511;-73
2023/09/10 02:23:24;;;;;;;;;;;;;;;;;;;;;
2023/09/10 02:29:12;;;;;;;27.53;23.63;;;17.10;99.90;;;;;;4995533;28;20471;-72
2023/09/10 02:31:38;;;;;;;29.47;24.10;;;17.10;99.90;;;;;;4993521;28;20432;-73
2023/09/10 02:34:07;;;;;;;28.40;25.30;;;17.00;99.90;;;;;;4994295;28;20481;-73
2023/09/10 02:36:33;;;;;;;27.93;24.80;;;17.00;99.90;;;;;;4977199;28;20432;-73
2023/09/10 02:39:22;;;;;;;30.33;23.57;;;17.10;99.90;;;;;;4995275;28;20785;-73
2023/09/10 02:41:49;;;;;;;50.83;35.60;;;17.10;99.90;;;;;;4976413;28;20185;-73
2023/09/10 02:45:02;;;;;;;;;;;;;;;;;;;;;
2023/09/10 02:47:28;;;;;;;56.17;39.27;;;17.40;99.90;;;;;;4992790;28;20451;-73
2023/09/10 02:49:55;;;;;;;78.00;44.67;;;17.60;99.90;;;;;;4995042;28;20752;-73
2023/09/10 02:52:43;;;;;;;;;;;;;;;;;;;;;
2023/09/10 02:55:30;;;;;;;71.40;43.37;;;17.80;99.90;;;;;;4994910;28;20803;-73
2023/09/10 02:58:06;;;;;;;101.23;44.23;;;17.90;99.90;;;;;;4993162;28;22264;-73
2023/09/10 03:01:35;;;;;;;;;;;;;;;;;;;;;
2023/09/10 03:04:49;;;;;;;82.50;41.33;;;17.90;1.00;;;;;;4952912;28;20475;-73
2023/09/10 03:07:16;;;;;;;59.23;40.90;;;17.90;1.00;;;;;;4918327;28;20438;-73
2023/09/10 03:17:38;;;;;;;72.57;45.30;;;18.00;1.00;;;;;;4978988;28;20491;-74
2023/09/10 03:20:08;;;;;;;64.00;42.93;;;18.10;1.00;;;;;;4976350;28;20448;-73
2023/09/10 03:22:35;;;;;;;54.00;38.97;;;18.10;1.00;;;;;;4994461;28;20408;-73
2023/09/10 03:25:01;;;;;;;49.37;38.60;;;18.00;1.00;;;;;;4993471;28;20460;-73
2023/09/10 03:27:27;;;;;;;56.73;40.00;;;18.10;1.00;;;;;;4992252;28;20509;-73
2023/09/10 03:33:56;;;;;;;59.53;38.30;;;18.10;1.00;;;;;;4933025;29;20444;-74
2023/09/10 03:37:13;;;;;;;52.20;38.00;;;18.10;1.00;;;;;;4933386;28;20451;-74
2023/09/10 03:46:55;;;;;;;60.80;39.50;;;18.10;1.00;;;;;;4870607;29;20597;-73
2023/09/10 03:49:21;;;;;;;61.60;41.23;;;18.20;1.00;;;;;;4942279;28;20426;-74
2023/09/10 03:51:56;;;;;;;72.80;41.73;;;18.20;1.00;;;;;;4993955;28;20404;-73
2023/09/10 03:54:24;;;;;;;72.90;44.57;;;18.20;1.00;;;;;;4992211;28;20487;-73
2023/09/10 03:57:07;;;;;;;74.27;43.03;;;18.20;9.90;;;;;;4992801;28;20475;-74
2023/09/10 03:59:43;;;;;;;75.77;45.17;;;18.20;31.50;;;;;;4993238;28;20400;-73
2023/09/10 04:02:56;;;;;;;78.23;46.53;;;18.20;40.70;;;;;;4991466;28;20491;-74
2023/09/10 04:05:23;;;;;;;84.03;48.57;;;18.20;79.40;;;;;;4989751;28;20455;-73
2023/09/10 04:07:49;;;;;;;91.10;52.37;;;18.20;94.80;;;;;;4993601;28;20468;-73
2023/09/10 04:10:32;;;;;;;;;;;;;;;;;;;;;
2023/09/10 04:13:26;;;;;;;101.50;54.47;;;18.20;99.90;;;;;;4993296;28;20411;-74
2023/09/10 04:15:52;;;;;;;99.00;51.37;;;18.30;99.90;;;;;;4992217;28;20396;-73
2023/09/10 04:18:18;;;;;;;95.90;53.03;;;18.30;99.90;;;;;;4992380;28;20459;-73
2023/09/10 04:20:44;;;;;;;90.60;51.47;;;18.30;99.90;;;;;;4993532;28;20400;-73
2023/09/10 04:23:13;;;;;;;102.30;53.50;;;18.30;99.90;;;;;;4993556;28;20408;-74
2023/09/10 04:25:39;;;;;;;87.43;48.97;;;18.40;99.90;;;;;;4991233;28;20808;-74
2023/09/10 04:28:14;;;;;;;84.10;50.43;;;18.40;99.90;;;;;;4988877;28;20436;-73
2023/09/10 04:31:35;;;;;;;100.00;53.77;;;18.40;99.90;;;;;;4971770;28;20445;-73
2023/09/10 04:34:14;;;;;;;;;;;;;;;;;;;;;
2023/09/10 04:37:20;;;;;;;;;;;;;;;;;;;;;
2023/09/10 04:40:23;;;;;;;82.10;50.37;;;18.40;99.90;;;;;;4993282;28;20430;-73
2023/09/10 04:49:07;;;;;;;80.83;46.53;;;18.10;99.90;;;;;;4876664;29;20465;-74
2023/09/10 04:51:56;;;;;;;74.80;47.73;;;18.10;99.90;;;;;;4896860;29;20414;-74
2023/09/10 04:57:50;;;;;;;90.43;51.53;;;18.10;99.90;;;;;;4895550;29;20452;-74
2023/09/10 05:00:22;;;;;;;85.80;49.40;;;18.10;99.90;;;;;;4967353;28;21004;-73
2023/09/10 05:02:48;;;;;;;88.90;47.90;;;18.00;99.90;;;;;;4992062;28;20531;-74
2023/09/10 05:05:27;;;;;;;86.07;48.80;;;18.00;99.90;;;;;;4975448;28;20550;-74
2023/09/10 05:08:12;;;;;;;84.77;46.60;;;18.00;99.90;;;;;;4993026;28;20193;-73
2023/09/10 05:10:48;;;;;;;89.90;49.07;;;18.00;99.90;;;;;;4993045;28;20419;-73
2023/09/10 05:13:17;;;;;;;95.63;48.13;;;18.00;99.90;;;;;;4991453;28;20423;-73
2023/09/10 05:16:06;;;;;;;92.50;49.73;;;18.00;99.90;;;;;;4992309;28;20416;-73
2023/09/10 05:21:41;;;;;;;90.13;48.50;;;18.10;99.90;;;;;;4991676;28;20446;-74
2023/09/10 05:31:05;;;;;;;75.20;44.30;;;18.20;97.60;;;;;;4996054;28;20380;-74
2023/09/10 05:37:25;;;;;;;89.00;46.23;;;18.20;86.90;;;;;;4994178;28;20553;-73
2023/09/10 05:39:54;;;;;;;74.73;44.33;;;18.20;79.60;;;;;;4996408;28;20486;-72
2023/09/10 05:42:37;;;;;;;74.40;45.63;;;18.10;68.10;;;;;;4996234;28;20539;-72
2023/09/10 05:49:00;;;;;;;79.43;44.17;;;18.10;53.80;;;;;;4935024;29;20872;-74
2023/09/10 05:58:31;;;;;;;75.87;43.80;;;18.10;33.80;;;;;;4897740;29;20500;-74
2023/09/10 06:01:23;;;;;;;75.63;42.17;;;18.10;28.30;;;;;;4914300;29;20444;-75
2023/09/10 06:04:12;;;;;;;72.70;40.77;;;18.10;13.00;;;;;;4890287;29;20463;-72
2023/09/10 06:10:15;;;;;;;73.00;39.80;;;18.00;1.00;;;;;;4916060;29;20427;-71
2023/09/10 06:12:43;;;;;;;75.03;41.33;;;18.00;1.00;;;;;;4971197;28;20432;-77
2023/09/10 06:15:28;;;;;;;74.27;42.23;;;18.00;1.00;;;;;;4978298;28;20991;-75
2023/09/10 06:22:33;;;;;;;;;;;;;;;;;;;;;
2023/09/10 06:26:22;;;;;;;74.87;42.70;;;18.10;1.00;;;;;;4878610;29;20468;-77
2023/09/10 06:48:48;;;;;;;67.97;39.87;;;18.20;1.00;;;;;;4850592;29;20426;-75
2023/09/10 06:54:57;;;;;;;69.60;41.53;;;18.30;1.00;;;;;;4882721;29;20414;-75
2023/09/10 06:57:32;;;;;;;70.23;40.77;;;18.30;1.00;;;;;;4913332;29;20459;-76
2023/09/10 06:59:58;;;;;;;67.33;40.80;;;18.40;1.00;;;;;;4964649;28;20841;-77
2023/09/10 07:02:48;;;;;;;64.07;38.70;;;18.50;1.00;;;;;;4993613;28;20431;-75
2023/09/10 07:13:05;;;;;;;62.53;37.60;;;18.60;1.00;;;;;;4877978;29;20546;-75
2023/09/10 07:15:49;;;;;;;64.77;40.63;;;18.60;1.00;;;;;;4868004;29;20914;-76
2023/09/10 07:19:02;;;;;;;62.70;38.13;;;18.50;1.00;;;;;;4877581;29;20468;-73
2023/09/10 07:21:31;;;;;;;61.60;37.30;;;18.50;1.00;;;;;;4875602;29;20480;-71
2023/09/10 07:23:57;;;;;;;64.80;38.60;;;18.60;1.00;;;;;;4934282;29;20525;-73
2023/09/10 07:29:10;;;;;;;56.83;36.10;;;18.80;1.00;;;;;;4989906;28;20431;-72
2023/09/10 07:31:36;;;;;;;66.13;36.50;;;18.80;1.00;;;;;;4991764;28;20435;-73
2023/09/10 07:34:03;;;;;;;60.97;37.17;;;18.80;1.00;;;;;;4976165;28;20420;-72
2023/09/10 07:42:58;;;;;;;60.90;37.43;;;18.90;1.00;;;;;;4974633;28;21165;-75
2023/09/10 07:45:27;;;;;;;51.97;34.37;;;19.00;1.00;;;;;;4974059;28;20465;-72
2023/09/10 07:47:54;;;;;;;63.10;38.33;;;19.00;99.90;;;;;;4992901;28;20498;-72
2023/09/10 07:53:45;;;;;;;63.13;37.50;;;19.10;99.90;;;;;;4956757;28;20423;-72
2023/09/10 07:56:11;;;;;;;58.53;34.20;;;19.10;99.90;;;;;;4992886;28;20419;-73
2023/09/10 08:05:55;;;;;;;43.43;31.03;;;19.20;99.90;;;;;;4913886;29;20536;-73
2023/09/10 08:08:21;;;;;;;48.90;32.13;;;19.30;99.90;;;;;;4914659;29;20505;-72
2023/09/10 08:10:49;;;;;;;52.80;33.37;;;19.30;99.90;;;;;;4914587;29;20424;-72
2023/09/10 08:13:21;;;;;;;49.13;31.70;;;19.30;99.90;;;;;;4973667;28;20449;-72
2023/09/10 08:16:28;;;;;;;55.20;34.13;;;19.40;99.90;;;;;;4985996;28;20435;-73
2023/09/10 08:22:53;;;;;;;52.07;32.20;;;19.60;99.90;;;;;;4974233;28;20814;-72
2023/09/10 08:25:29;;;;;;;;;;;;;;;;;;;;;
2023/09/10 08:27:59;;;;;;;52.27;33.37;;;19.70;99.90;;;;;;4973383;28;20775;-73
2023/09/10 08:30:48;;;;;;;51.00;30.77;;;19.70;99.90;;;;;;4990867;28;20871;-72
2023/09/10 08:33:21;;;;;;;52.60;33.40;;;19.80;99.90;;;;;;4982964;28;20955;-73
2023/09/10 08:35:53;;;;;;;50.33;31.80;;;19.70;99.90;;;;;;4992494;28;20420;-72
2023/09/10 08:38:21;;;;;;;47.67;32.50;;;19.70;99.90;;;;;;4975895;28;20526;-73
2023/09/10 08:41:19;;;;;;;49.30;32.60;;;19.70;99.90;;;;;;4993319;28;20495;-73
2023/09/10 08:43:56;;;;;;;47.43;32.67;;;19.70;99.90;;;;;;4977229;28;20446;-72
2023/09/10 08:46:47;;;;;;;48.13;32.60;;;19.70;99.90;;;;;;4972896;28;20511;-72
2023/09/10 08:49:43;;;;;;;47.40;32.33;;;19.90;99.90;;;;;;4993065;28;20434;-72
2023/09/10 08:52:10;;;;;;;47.87;30.17;;;19.90;99.90;;;;;;4993310;28;20758;-73
2023/09/10 08:55:27;;;;;;;60.30;35.97;;;20.00;99.90;;;;;;4974562;28;20438;-73
2023/09/10 08:57:56;;;;;;;50.60;31.37;;;20.00;99.90;;;;;;4978803;28;20770;-73
2023/09/10 09:01:06;;;;;;;50.63;31.77;;;19.90;99.90;;;;;;4996099;28;20777;-72
2023/09/10 09:03:22;;;;;;;;;;;;;;;;;;;;;
2023/09/10 09:05:54;;;;;;;52.83;32.87;;;20.00;99.90;;;;;;4995552;28;20982;-74
2023/09/10 09:08:27;;;;;;;51.07;33.30;;;20.00;99.90;;;;;;4995903;28;20519;-72
2023/09/10 09:10:53;;;;;;;49.57;31.10;;;20.00;99.90;;;;;;4996789;28;20400;-73
2023/09/10 09:13:20;;;;;;;47.90;32.27;;;20.10;99.90;;;;;;4996851;28;20406;-74
2023/09/10 09:15:55;;;;;;;50.87;30.33;;;20.20;99.90;;;;;;4994739;28;20431;-73
2023/09/10 09:21:58;;;;;;;47.50;31.37;;;20.30;99.90;;;;;;4968386;28;20889;-73
2023/09/10 09:24:25;;;;;;;45.00;30.00;;;20.10;99.90;;;;;;4996718;28;20459;-72
2023/09/10 09:26:52;;;;;;;48.23;30.27;;;20.10;99.90;;;;;;4995733;28;20428;-72
2023/09/10 09:29:22;;;;;;;48.67;31.07;;;20.10;99.90;;;;;;4995440;28;20885;-74
2023/09/10 09:32:20;;;;;;;43.80;30.10;;;20.10;99.90;;;;;;4996750;28;20415;-73
2023/09/10 09:34:49;;;;;;;43.43;29.83;;;20.10;99.90;;;;;;4996499;28;20511;-73
2023/09/10 09:37:21;;;;;;;50.80;32.60;;;20.20;99.90;;;;;;4995513;28;20439;-73
2023/09/10 09:39:50;;;;;;;47.47;28.93;;;20.20;99.90;;;;;;4996289;28;20408;-72
2023/09/10 09:42:16;;;;;;;45.63;30.93;;;20.30;99.90;;;;;;4996158;28;20436;-73
2023/09/10 09:44:44;;;;;;;46.63;29.03;;;20.20;99.90;;;;;;4974615;28;20460;-73
2023/09/10 09:47:47;;;;;;;48.07;30.77;;;20.10;99.90;;;;;;4975962;28;20898;-72
2023/09/10 09:50:14;;;;;;;43.07;29.23;;;20.30;99.90;;;;;;4976751;28;20492;-71
2023/09/10 09:55:55;;;;;;;44.70;28.87;;;20.70;99.90;;;;;;4975600;28;20517;-72
2023/09/10 09:58:21;;;;;;;39.33;27.83;;;21.20;99.90;;;;;;4976445;28;20417;-74
2023/09/10 10:00:46;;;;;;;44.03;29.13;;;21.70;99.90;;;;;;4995414;28;20416;-75
2023/09/10 10:03:12;;;;;;;45.87;30.63;;;22.10;99.90;;;;;;4995852;28;20169;-72
2023/09/10 10:05:38;;;;;;;39.20;27.67;;;22.40;96.60;;;;;;4992988;28;20248;-72
2023/09/10 10:08:04;;;;;;;42.10;28.80;;;22.60;94.40;;;;;;4994685;28;20275;-74
2023/09/10 10:10:30;;;;;;;42.87;28.23;;;22.70;77.90;;;;;;4995620;28;20244;-71
2023/09/10 10:12:56;;;;;;;38.13;26.67;;;22.80;73.60;;;;;;4994672;28;21053;-74
2023/09/10 10:15:22;;;;;;;40.63;27.57;;;23.00;66.90;;;;;;4993706;28;20181;-72
2023/09/10 10:17:51;;;;;;;33.00;26.40;;;23.50;42.30;;;;;;4995074;28;20555;-74
2023/09/10 10:20:18;;;;;;;35.63;24.97;;;23.50;1.00;;;;;;4995611;28;20492;-75
2023/09/10 10:22:45;;;;;;;42.73;27.37;;;23.90;1.00;;;;;;4978170;28;20813;-73
2023/09/10 10:25:12;;;;;;;42.43;26.67;;;24.20;1.00;;;;;;4994160;28;20547;-73
2023/09/10 10:27:41;;;;;;;38.80;26.37;;;24.30;1.00;;;;;;4994744;28;20420;-73
2023/09/10 10:30:08;;;;;;;38.10;26.60;;;24.10;1.00;;;;;;4993197;28;20416;-71
2023/09/10 10:32:45;;;;;;;35.23;26.00;;;24.00;1.00;;;;;;4994503;28;20452;-73
2023/09/10 10:35:11;;;;;;;37.85;26.50;;;23.90;1.00;;;;;;4994334;28;20435;-74
2023/09/10 10:37:58;;;;;;;37.87;25.63;;;24.40;1.00;;;;;;4994580;28;20658;-75
2023/09/10 10:40:35;;;;;;;36.83;28.03;;;24.50;1.00;;;;;;4995463;28;20411;-72
2023/09/10 10:43:18;;;;;;;34.90;25.10;;;24.30;1.00;;;;;;4993959;28;20532;-71
2023/09/10 10:45:46;;;;;;;38.43;26.50;;;24.10;1.00;;;;;;4993199;28;20464;-74
2023/09/10 10:48:14;;;;;;;34.90;24.50;;;23.80;1.00;;;;;;4995010;28;20447;-74
2023/09/10 10:50:42;;;;;;;38.20;27.03;;;23.60;1.00;;;;;;4995315;28;20397;-75
2023/09/10 10:53:26;;;;;;;40.93;28.50;;;23.60;1.00;;;;;;4994926;28;20400;-71
2023/09/10 10:55:58;;;;;;;36.40;25.27;;;23.50;1.00;;;;;;4993916;28;20427;-70
2023/09/10 10:58:24;;;;;;;35.37;26.10;;;23.50;1.00;;;;;;4993597;28;20456;-74
2023/09/10 11:00:51;;;;;;;35.77;25.50;;;23.40;1.00;;;;;;4994056;28;20477;-71
2023/09/10 11:03:18;;;;;;;36.07;25.60;;;23.40;1.00;;;;;;4994844;28;20905;-74
2023/09/10 11:05:53;;;;;;;38.17;25.90;;;23.50;1.00;;;;;;4976357;28;20456;-74
2023/09/10 11:08:40;;;;;;;34.53;24.40;;;23.60;1.00;;;;;;4976408;28;20483;-70
2023/09/10 11:11:37;;;;;;;32.70;24.53;;;23.70;1.00;;;;;;4994736;28;20403;-75
2023/09/10 11:14:06;;;;;;;34.97;26.23;;;23.80;1.00;;;;;;4994337;28;20415;-74
2023/09/10 11:16:33;;;;;;;37.33;26.10;;;23.90;1.00;;;;;;4975200;28;21082;-75
2023/09/10 11:19:00;;;;;;;41.13;28.70;;;24.10;1.00;;;;;;4994543;28;20443;-76
2023/09/10 11:21:54;;;;;;;37.30;26.80;;;24.00;1.00;;;;;;4992793;28;20430;-71
2023/09/10 11:24:19;;;;;;;40.10;28.00;;;24.10;1.00;;;;;;4975043;28;20543;-71
2023/09/10 11:26:45;;;;;;;33.57;25.87;;;24.50;1.00;;;;;;4966241;28;20511;-73
2023/09/10 11:29:18;;;;;;;35.53;25.50;;;24.60;1.00;;;;;;4975057;28;20208;-70
2023/09/10 11:31:46;;;;;;;33.73;24.67;;;24.60;1.00;;;;;;4987867;28;20432;-71
2023/09/10 11:34:18;;;;;;;35.10;24.93;;;24.50;1.00;;;;;;4992880;28;20431;-71
2023/09/10 11:36:51;;;;;;;32.00;25.80;;;24.40;1.00;;;;;;4993288;28;20416;-74
2023/09/10 11:39:18;;;;;;;39.03;25.17;;;24.50;1.00;;;;;;4994161;28;20424;-71
2023/09/10 11:41:52;;;;;;;30.30;22.10;;;24.50;1.00;;;;;;4994189;28;20877;-73
2023/09/10 11:44:18;;;;;;;33.83;24.90;;;24.70;1.00;;;;;;4976830;28;20459;-72
2023/09/10 11:46:44;;;;;;;25.30;20.10;;;25.00;1.00;;;;;;4991886;28;20447;-75
2023/09/10 11:49:10;;;;;;;35.40;23.97;;;25.30;1.00;;;;;;4976217;28;20440;-71
2023/09/10 11:51:44;;;;;;;29.00;22.70;;;25.00;1.00;;;;;;4993823;28;20447;-75
2023/09/10 11:54:16;;;;;;;28.93;22.47;;;25.10;1.00;;;;;;4993892;28;20405;-71
2023/09/10 11:57:03;;;;;;;29.37;21.83;;;25.00;1.00;;;;;;4992858;28;20412;-74
2023/09/10 11:59:30;;;;;;;30.83;23.83;;;25.20;1.00;;;;;;4974337;28;20435;-71
2023/09/10 12:01:57;;;;;;;28.60;22.00;;;25.20;1.00;;;;;;4993799;28;20396;-72
2023/09/10 12:04:33;;;;;;;28.40;20.40;;;25.40;1.00;;;;;;4993702;28;20984;-74
2023/09/10 12:07:00;;;;;;;28.70;23.33;;;25.60;1.00;;;;;;4992915;28;20428;-75
2023/09/10 12:09:32;;;;;;;29.37;23.90;;;25.60;1.00;;;;;;4993073;28;20483;-74
2023/09/10 12:12:13;;;;;;;24.50;20.00;;;25.80;1.00;;;;;;4993777;28;20455;-72
2023/09/10 12:14:39;;;;;;;23.40;19.77;;;26.20;1.00;;;;;;4971742;28;20436;-72
2023/09/10 12:17:05;;;;;;;26.70;20.43;;;26.40;1.00;;;;;;4989837;28;20455;-71
2023/09/10 12:19:32;;;;;;;26.40;20.27;;;26.80;1.00;;;;;;4993678;28;20403;-75
2023/09/10 12:21:59;;;;;;;23.53;19.70;;;27.10;1.00;;;;;;4993606;28;20169;-75
2023/09/10 12:24:25;;;;;;;21.13;18.83;;;27.80;1.00;;;;;;4993550;28;20443;-71
2023/09/10 12:26:50;;;;;;;19.87;17.53;;;28.30;1.00;;;;;;4991393;28;20456;-71
2023/09/10 12:29:16;;;;;;;24.77;19.97;;;29.00;1.00;;;;;;4991893;28;20515;-73
2023/09/10 12:31:42;;;;;;;22.10;19.70;;;29.70;1.00;;;;;;4992817;28;20606;-70
2023/09/10 12:34:09;;;;;;;17.10;15.00;;;30.20;1.00;;;;;;4989827;28;20181;-75
2023/09/10 12:36:37;;;;;;;18.50;16.57;;;30.60;1.00;;;;;;4991464;28;20686;-72
2023/09/10 12:39:17;;;;;;;17.77;15.97;;;31.10;1.00;;;;;;4993344;28;20412;-72
2023/09/10 12:41:43;;;;;;;19.60;16.97;;;31.60;1.00;;;;;;4990653;28;20927;-70
2023/09/10 12:44:10;;;;;;;33.07;19.43;;;31.90;1.00;;;;;;4992740;28;20499;-71
2023/09/10 12:46:36;;;;;;;18.27;15.43;;;32.20;1.00;;;;;;4992242;28;20668;-75
2023/09/10 12:49:02;;;;;;;18.63;16.40;;;32.70;1.00;;;;;;4976005;28;20432;-71
2023/09/10 12:51:27;;;;;;;17.70;15.17;;;33.00;1.00;;;;;;4993436;28;20530;-70
2023/09/10 12:53:53;;;;;;;19.53;15.70;;;33.50;1.00;;;;;;4993430;28;20592;-72
2023/09/10 12:56:20;;;;;;;18.43;16.53;;;33.80;1.00;;;;;;4991243;28;20180;-74
2023/09/10 12:58:48;;;;;;;19.40;17.50;;;34.00;1.00;;;;;;4992204;28;20411;-71
2023/09/10 13:01:14;;;;;;;182.67;164.73;;;34.10;1.00;;;;;;4975673;28;20966;-76
2023/09/10 13:03:40;;;;;;;24.83;22.43;;;34.10;1.00;;;;;;4992326;28;20932;-76
2023/09/10 13:06:06;;;;;;;22.07;19.77;;;34.30;1.00;;;;;;4985441;28;20459;-70
2023/09/10 13:08:31;;;;;;;22.40;19.97;;;34.40;1.00;;;;;;4993200;28;20544;-71
2023/09/10 13:11:02;;;;;;;26.67;23.80;;;34.40;1.00;;;;;;4993123;28;20645;-78
2023/09/10 13:13:27;;;;;;;15.67;14.07;;;34.60;99.90;;;;;;4992088;28;20172;-70
2023/09/10 13:15:53;;;;;;;16.20;14.47;;;34.80;99.90;;;;;;4992333;28;20408;-76
2023/09/10 13:18:19;;;;;;;17.53;14.50;;;34.70;99.90;;;;;;4991990;28;20256;-76
2023/09/10 13:20:45;;;;;;;16.00;14.47;;;34.90;99.90;;;;;;4992445;28;20232;-77
2023/09/10 13:23:10;;;;;;;18.40;14.23;;;34.80;99.90;;;;;;4993087;28;20224;-77
2023/09/10 13:25:36;;;;;;;20.17;16.30;;;34.90;99.90;;;;;;4992078;28;20235;-70
2023/09/10 13:28:03;;;;;;;16.77;13.30;;;34.60;99.90;;;;;;4990754;28;20229;-76
2023/09/10 13:30:29;;;;;;;19.93;14.20;;;34.90;99.90;;;;;;4993088;28;20160;-70
2023/09/10 13:32:54;;;;;;;14.30;12.87;;;34.90;99.90;;;;;;4992979;28;20398;-76
2023/09/10 13:35:23;;;;;;;16.37;14.73;;;35.00;99.90;;;;;;4990830;28;20188;-76
2023/09/10 13:37:49;;;;;;;15.67;14.17;;;34.90;99.90;;;;;;4992266;28;20271;-70
2023/09/10 13:40:15;;;;;;;17.50;15.20;;;34.70;99.90;;;;;;4992797;28;20575;-70
2023/09/10 13:42:40;;;;;;;18.47;15.87;;;34.40;99.90;;;;;;4991383;28;20200;-70
2023/09/10 13:45:07;;;;;;;17.40;15.40;;;33.90;99.90;;;;;;4995217;28;20295;-73
2023/09/10 13:47:33;;;;;;;17.87;14.70;;;33.30;99.90;;;;;;4995982;28;20673;-71
2023/09/10 13:49:58;;;;;;;14.77;12.83;;;32.80;99.90;;;;;;4978784;28;20442;-76
2023/09/10 13:52:24;;;;;;;15.23;13.60;;;32.50;99.90;;;;;;4992775;28;20181;-70
2023/09/10 13:54:49;;;;;;;15.20;13.60;;;32.00;99.90;;;;;;4976967;28;20191;-76
2023/09/10 13:57:15;;;;;;;13.07;11.70;;;31.80;99.90;;;;;;4992606;28;20200;-76
2023/09/10 13:59:41;;;;;;;12.50;11.20;;;31.80;99.90;;;;;;4995429;28;20264;-70
2023/09/10 14:02:06;;;;;;;13.87;12.57;;;32.10;99.90;;;;;;4995360;28;20191;-70
2023/09/10 14:04:34;;;;;;;19.40;14.60;;;32.70;99.90;;;;;;4995853;28;20279;-77
2023/09/10 14:06:59;;;;;;;14.10;12.70;;;33.20;99.90;;;;;;5014125;28;20652;-77
2023/09/10 14:09:26;;;;;;;14.77;13.10;;;33.70;99.90;;;;;;5015478;28;20410;-77
2023/09/10 14:11:52;;;;;;;17.50;14.97;;;34.00;99.90;;;;;;5015536;28;20616;-78
2023/09/10 14:14:17;;;;;;;16.83;14.40;;;33.60;99.90;;;;;;5015436;28;20410;-70
2023/09/10 14:16:43;;;;;;;13.97;12.27;;;34.30;99.90;;;;;;5000279;28;20556;-77
2023/09/10 14:19:09;;;;;;;17.87;14.40;;;34.90;99.90;;;;;;4994646;28;20173;-70
2023/09/10 14:21:38;;;;;;;14.73;13.23;;;34.90;99.90;;;;;;4995695;28;20168;-73
2023/09/10 14:24:04;;;;;;;16.40;12.10;;;35.50;99.90;;;;;;4978169;28;20168;-70
2023/09/10 14:26:30;;;;;;;19.27;13.80;;;35.70;99.90;;;;;;4994718;28;20431;-71
2023/09/10 14:28:55;;;;;;;14.47;13.00;;;35.70;99.90;;;;;;4995712;28;20410;-78
2023/09/10 14:31:21;;;;;;;16.43;14.53;;;35.80;99.90;;;;;;4993760;28;20617;-70
2023/09/10 14:33:47;;;;;;;15.40;13.87;;;35.70;99.90;;;;;;4991264;28;20188;-75
2023/09/10 14:36:13;;;;;;;16.03;14.47;;;35.70;99.90;;;;;;4993305;28;20266;-76
2023/09/10 14:38:39;;;;;;;16.20;13.77;;;35.60;99.90;;;;;;4992441;28;20633;-69
2023/09/10 14:41:04;;;;;;;18.80;13.50;;;35.30;99.90;;;;;;4994547;28;20435;-76
2023/09/10 14:43:30;;;;;;;17.63;15.40;;;34.80;99.90;;;;;;4994300;28;20250;-77
2023/09/10 14:45:56;;;;;;;15.43;13.47;;;34.10;99.90;;;;;;4993415;28;20212;-69
2023/09/10 14:48:22;;;;;;;16.13;13.83;;;33.80;99.90;;;;;;4992848;28;20672;-69
2023/09/10 14:50:48;;;;;;;18.93;14.70;;;33.50;99.90;;;;;;4978020;28;20411;-71
2023/09/10 14:53:14;;;;;;;15.90;13.83;;;33.60;99.90;;;;;;4976474;28;21028;-74
2023/09/10 14:55:39;;;;;;;14.70;13.20;;;33.40;99.90;;;;;;4992352;28;20184;-76
2023/09/10 14:58:05;;;;;;;16.20;13.87;;;33.30;99.90;;;;;;4993170;28;20287;-69
2023/09/10 15:00:32;;;;;;;15.37;13.70;;;33.00;99.90;;;;;;4993623;28;20877;-76
2023/09/10 15:02:59;;;;;;;17.30;15.10;;;32.50;99.90;;;;;;4994122;28;20436;-70
2023/09/10 15:05:24;;;;;;;15.80;12.90;;;32.10;99.90;;;;;;4992934;28;20518;-72
2023/09/10 15:07:50;;;;;;;15.67;13.37;;;32.10;99.90;;;;;;4993671;28;20549;-76
2023/09/10 15:10:16;;;;;;;25.23;15.80;;;31.90;99.90;;;;;;4977029;28;20188;-70
2023/09/10 15:12:41;;;;;;;17.43;14.30;;;31.60;99.90;;;;;;4993677;28;20197;-69
2023/09/10 15:15:08;;;;;;;22.53;17.33;;;31.10;99.90;;;;;;4973777;28;20188;-76
2023/09/10 15:17:33;;;;;;;19.87;16.47;;;30.50;99.90;;;;;;4992861;28;20276;-72
2023/09/10 15:19:59;;;;;;;19.90;16.80;;;29.90;99.90;;;;;;4993450;28;20443;-77
2023/09/10 15:22:26;;;;;;;22.63;17.53;;;29.50;99.90;;;;;;4994236;28;20177;-77
2023/09/10 15:24:52;;;;;;;19.63;17.03;;;28.90;99.90;;;;;;4994453;28;20605;-70
2023/09/10 15:27:18;;;;;;;19.80;16.67;;;28.50;99.90;;;;;;4992585;28;20526;-76
2023/09/10 15:29:43;;;;;;;20.97;16.10;;;28.10;99.90;;;;;;4992949;28;20184;-74
2023/09/10 15:32:09;;;;;;;20.23;16.60;;;27.70;99.90;;;;;;4993303;28;20184;-70
2023/09/10 15:34:35;;;;;;;23.20;18.13;;;27.30;99.90;;;;;;4994360;28;20180;-69
2023/09/10 15:37:00;;;;;;;19.20;17.10;;;27.10;99.90;;;;;;4991157;28;20276;-73
2023/09/10 15:39:27;;;;;;;24.33;18.30;;;26.90;1.00;;;;;;4974884;28;20192;-78
2023/09/10 15:41:53;;;;;;;26.27;19.30;;;26.70;1.00;;;;;;4993181;28;20176;-76
2023/09/10 15:44:18;;;;;;;24.90;18.67;;;26.50;1.00;;;;;;4993051;28;20436;-76
2023/09/10 15:46:44;;;;;;;23.47;18.30;;;26.30;1.00;;;;;;4990924;28;20459;-70
2023/09/10 15:49:11;;;;;;;25.10;20.40;;;26.20;1.00;;;;;;4992610;28;20196;-70
2023/09/10 15:51:37;;;;;;;21.33;17.90;;;26.00;1.00;;;;;;4990907;28;20177;-74
2023/09/10 15:54:03;;;;;;;20.27;17.33;;;25.90;1.00;;;;;;4975453;28;20539;-76
2023/09/10 15:56:28;;;;;;;22.80;18.33;;;25.70;1.00;;;;;;4990769;28;20209;-68
2023/09/10 15:58:54;;;;;;;21.90;18.90;;;25.60;1.00;;;;;;4992819;28;20676;-74
2023/09/10 16:01:20;;;;;;;24.07;20.00;;;25.40;1.00;;;;;;4992706;28;20700;-76